sensor_id;sensor_type;location;lat;lon;timestamp;pressure;altitude;pressure_sealevel;temperature;humidity
19150;BME280;9707;49.158;8.632;2023-04-08T00:02:06;100769.41;;;19.63;35.29
19150;BME280;9707;49.158;8.632;2023-04-08T00:04:32;100767.59;;;19.63;35.30
19150;BME280;9707;49.158;8.632;2023-04-08T00:06:57;100768.44;;;19.64;35.19
19150;BME280;9707;49.158;8.632;2023-04-08T00:09:22;100771.16;;;19.64;35.27
19150;BME280;9707;49.158;8.632;2023-04-08T00:11:47;100771.16;;;19.64;35.25
19150;BME280;9707;49.158;8.632;2023-04-08T00:14:13;100771.16;;;19.64;35.39
19150;BME280;9707;49.158;8.632;2023-04-08T00:16:38;100771.28;;;19.62;35.04
19150;BME280;9707;49.158;8.632;2023-04-08T00:19:03;100774.81;;;19.63;35.28
19150;BME280;9707;49.158;8.632;2023-04-08T00:21:30;100774.81;;;19.63;35.46
19150;BME280;9707;49.158;8.632;2023-04-08T00:23:56;100779.38;;;19.62;35.26
19150;BME280;9707;49.158;8.632;2023-04-08T00:26:21;100774.81;;;19.63;35.41
19150;BME280;9707;49.158;8.632;2023-04-08T00:28:46;100778.50;;;19.62;35.26
19150;BME280;9707;49.158;8.632;2023-04-08T00:31:11;100775.81;;;19.62;35.35
19150;BME280;9707;49.158;8.632;2023-04-08T00:33:37;100779.38;;;19.62;35.41
19150;BME280;9707;49.158;8.632;2023-04-08T00:36:02;100784.78;;;19.62;35.33
19150;BME280;9707;49.158;8.632;2023-04-08T00:38:27;100773.09;;;19.62;35.50
19150;BME280;9707;49.158;8.632;2023-04-08T00:40:53;100778.50;;;19.62;35.51
19150;BME280;9707;49.158;8.632;2023-04-08T00:43:18;100779.38;;;19.62;35.29
19150;BME280;9707;49.158;8.632;2023-04-08T00:45:46;100772.22;;;19.61;35.45
19150;BME280;9707;49.158;8.632;2023-04-08T00:48:11;100782.19;;;19.61;35.62
19150;BME280;9707;49.158;8.632;2023-04-08T00:50:42;100771.38;;;19.61;35.53
19150;BME280;9707;49.158;8.632;2023-04-08T00:53:08;100775.81;;;19.62;35.61
19150;BME280;9707;49.158;8.632;2023-04-08T00:55:33;100778.50;;;19.62;35.30
19150;BME280;9707;49.158;8.632;2023-04-08T00:57:58;100774.09;;;19.61;35.56
19150;BME280;9707;49.158;8.632;2023-04-08T01:00:24;100783.03;;;19.61;35.49
19150;BME280;9707;49.158;8.632;2023-04-08T01:03:14;100776.78;;;19.61;35.72
19150;BME280;9707;49.158;8.632;2023-04-08T01:05:58;100784.88;;;19.61;35.63
19150;BME280;9707;49.158;8.632;2023-04-08T01:08:29;100778.72;;;19.59;35.55
19150;BME280;9707;49.158;8.632;2023-04-08T01:11:00;100785.00;;;19.59;35.57
19150;BME280;9707;49.158;8.632;2023-04-08T01:13:29;100776.78;;;19.61;35.57
19150;BME280;9707;49.158;8.632;2023-04-08T01:15:55;100773.31;;;19.59;35.52
19150;BME280;9707;49.158;8.632;2023-04-08T01:18:21;100776.88;;;19.59;35.46
19150;BME280;9707;49.158;8.632;2023-04-08T01:20:48;100778.59;;;19.60;35.69
19150;BME280;9707;49.158;8.632;2023-04-08T01:25:54;100776.00;;;19.59;35.69
19150;BME280;9707;49.158;8.632;2023-04-08T01:28:23;100776.00;;;19.59;35.64
19150;BME280;9707;49.158;8.632;2023-04-08T01:30:49;100776.78;;;19.61;35.51
19150;BME280;9707;49.158;8.632;2023-04-08T01:33:16;100771.47;;;19.59;35.68
19150;BME280;9707;49.158;8.632;2023-04-08T01:35:42;100770.50;;;19.60;35.56
19150;BME280;9707;49.158;8.632;2023-04-08T01:38:10;100766.94;;;19.60;35.59
19150;BME280;9707;49.158;8.632;2023-04-08T01:40:38;100771.38;;;19.61;35.82
19150;BME280;9707;49.158;8.632;2023-04-08T01:43:07;100774.19;;;19.59;35.68
19150;BME280;9707;49.158;8.632;2023-04-08T01:45:32;100774.19;;;19.59;35.63
19150;BME280;9707;49.158;8.632;2023-04-08T01:47:59;100773.31;;;19.59;35.64
19150;BME280;9707;49.158;8.632;2023-04-08T01:50:25;100770.59;;;19.59;35.75
19150;BME280;9707;49.158;8.632;2023-04-08T01:52:51;100777.88;;;19.58;35.60
19150;BME280;9707;49.158;8.632;2023-04-08T01:55:18;100774.19;;;19.59;35.61
19150;BME280;9707;49.158;8.632;2023-04-08T01:57:48;100769.66;;;19.60;35.79
19150;BME280;9707;49.158;8.632;2023-04-08T02:00:15;100765.19;;;19.59;35.57
19150;BME280;9707;49.158;8.632;2023-04-08T02:02:41;100765.19;;;19.59;35.48
19150;BME280;9707;49.158;8.632;2023-04-08T02:05:08;100769.75;;;19.58;35.69
19150;BME280;9707;49.158;8.632;2023-04-08T02:07:33;100766.16;;;19.58;35.63
19150;BME280;9707;49.158;8.632;2023-04-08T02:09:59;100767.91;;;19.59;35.67
19150;BME280;9707;49.158;8.632;2023-04-08T02:12:25;100773.31;;;19.59;35.42
19150;BME280;9707;49.158;8.632;2023-04-08T02:14:52;100767.91;;;19.59;35.62
19150;BME280;9707;49.158;8.632;2023-04-08T02:17:49;100767.91;;;19.59;35.65
19150;BME280;9707;49.158;8.632;2023-04-08T02:20:23;100767.06;;;19.58;35.57
19150;BME280;9707;49.158;8.632;2023-04-08T02:25:28;100775.25;;;19.57;35.63
19150;BME280;9707;49.158;8.632;2023-04-08T02:27:55;100771.56;;;19.58;35.68
19150;BME280;9707;49.158;8.632;2023-04-08T02:30:20;100770.72;;;19.57;35.63
19150;BME280;9707;49.158;8.632;2023-04-08T02:32:46;100769.84;;;19.57;35.74
19150;BME280;9707;49.158;8.632;2023-04-08T02:35:14;100769.84;;;19.57;35.70
19150;BME280;9707;49.158;8.632;2023-04-08T02:37:40;100768.13;;;19.56;35.52
19150;BME280;9707;49.158;8.632;2023-04-08T02:40:25;100774.38;;;19.56;35.70
19150;BME280;9707;49.158;8.632;2023-04-08T02:42:51;100774.50;;;19.55;35.59
19150;BME280;9707;49.158;8.632;2023-04-08T02:45:16;100772.66;;;19.55;35.62
19150;BME280;9707;49.158;8.632;2023-04-08T02:47:42;100773.63;;;19.54;35.52
19150;BME280;9707;49.158;8.632;2023-04-08T02:50:07;100771.81;;;19.55;35.76
19150;BME280;9707;49.158;8.632;2023-04-08T02:52:33;100769.09;;;19.55;35.77
19150;BME280;9707;49.158;8.632;2023-04-08T02:54:58;100765.53;;;19.54;35.56
19150;BME280;9707;49.158;8.632;2023-04-08T02:57:23;100770.06;;;19.54;35.61
19150;BME280;9707;49.158;8.632;2023-04-08T02:59:48;100771.81;;;19.55;35.72
19150;BME280;9707;49.158;8.632;2023-04-08T03:02:14;100771.81;;;19.55;35.66
19150;BME280;9707;49.158;8.632;2023-04-08T03:04:39;100773.63;;;19.54;35.66
19150;BME280;9707;49.158;8.632;2023-04-08T03:07:04;100773.63;;;19.54;35.70
19150;BME280;9707;49.158;8.632;2023-04-08T03:09:30;100767.34;;;19.54;35.74
19150;BME280;9707;49.158;8.632;2023-04-08T03:11:55;100764.66;;;19.54;35.56
19150;BME280;9707;49.158;8.632;2023-04-08T03:14:21;100765.53;;;19.54;35.56
19150;BME280;9707;49.158;8.632;2023-04-08T03:16:46;100764.78;;;19.52;35.54
19150;BME280;9707;49.158;8.632;2023-04-08T03:19:11;100768.31;;;19.53;35.56
19150;BME280;9707;49.158;8.632;2023-04-08T03:21:36;100772.00;;;19.52;35.70
19150;BME280;9707;49.158;8.632;2023-04-08T03:24:02;100779.13;;;19.53;35.70
19150;BME280;9707;49.158;8.632;2023-04-08T03:26:27;100777.41;;;19.52;35.67
19150;BME280;9707;49.158;8.632;2023-04-08T03:28:53;100777.41;;;19.52;35.56
19150;BME280;9707;49.158;8.632;2023-04-08T03:31:18;100776.53;;;19.51;35.44
19150;BME280;9707;49.158;8.632;2023-04-08T03:33:45;100784.78;;;19.50;35.53
19150;BME280;9707;49.158;8.632;2023-04-08T03:36:10;100785.63;;;19.50;35.67
19150;BME280;9707;49.158;8.632;2023-04-08T03:38:36;100783.78;;;19.51;35.63
19150;BME280;9707;49.158;8.632;2023-04-08T03:41:01;100779.38;;;19.50;35.76
19150;BME280;9707;49.158;8.632;2023-04-08T03:43:26;100784.78;;;19.50;35.72
19150;BME280;9707;49.158;8.632;2023-04-08T03:45:52;100783.91;;;19.49;35.65
19150;BME280;9707;49.158;8.632;2023-04-08T03:48:17;100785.72;;;19.49;35.63
19150;BME280;9707;49.158;8.632;2023-04-08T03:50:42;100778.59;;;19.48;35.78
19150;BME280;9707;49.158;8.632;2023-04-08T03:53:07;100786.69;;;19.48;35.71
19150;BME280;9707;49.158;8.632;2023-04-08T03:55:35;100786.69;;;19.48;35.84
19150;BME280;9707;49.158;8.632;2023-04-08T03:58:00;100784.00;;;19.48;35.41
19150;BME280;9707;49.158;8.632;2023-04-08T04:00:26;100784.00;;;19.48;35.61
19150;BME280;9707;49.158;8.632;2023-04-08T04:02:51;100791.25;;;19.47;35.67
19150;BME280;9707;49.158;8.632;2023-04-08T04:05:16;100785.84;;;19.47;35.74
19150;BME280;9707;49.158;8.632;2023-04-08T04:07:42;100787.69;;;19.47;35.71
19150;BME280;9707;49.158;8.632;2023-04-08T04:10:07;100789.50;;;19.46;35.77
19150;BME280;9707;49.158;8.632;2023-04-08T04:12:33;100786.78;;;19.46;35.67
19150;BME280;9707;49.158;8.632;2023-04-08T04:14:58;100784.97;;;19.47;35.56
19150;BME280;9707;49.158;8.632;2023-04-08T04:17:23;100791.34;;;19.46;35.60
19150;BME280;9707;49.158;8.632;2023-04-08T04:19:48;100792.34;;;19.45;35.76
19150;BME280;9707;49.158;8.632;2023-04-08T04:22:14;100797.72;;;19.45;35.48
19150;BME280;9707;49.158;8.632;2023-04-08T04:24:39;100795.97;;;19.44;35.67
19150;BME280;9707;49.158;8.632;2023-04-08T04:27:04;100795.97;;;19.44;35.60
19150;BME280;9707;49.158;8.632;2023-04-08T04:29:30;100795.97;;;19.44;35.87
19150;BME280;9707;49.158;8.632;2023-04-08T04:31:55;100795.97;;;19.44;35.77
19150;BME280;9707;49.158;8.632;2023-04-08T04:34:21;100799.66;;;19.43;35.52
19150;BME280;9707;49.158;8.632;2023-04-08T04:36:46;100802.34;;;19.43;35.70
19150;BME280;9707;49.158;8.632;2023-04-08T04:39:11;100802.34;;;19.43;35.61
19150;BME280;9707;49.158;8.632;2023-04-08T04:41:36;100798.81;;;19.42;35.67
19150;BME280;9707;49.158;8.632;2023-04-08T04:44:05;100801.63;;;19.41;35.62
19150;BME280;9707;49.158;8.632;2023-04-08T04:46:30;100808.75;;;19.42;35.74
19150;BME280;9707;49.158;8.632;2023-04-08T04:48:55;100804.31;;;19.41;35.61
19150;BME280;9707;49.158;8.632;2023-04-08T04:51:21;100807.00;;;19.41;35.74
19150;BME280;9707;49.158;8.632;2023-04-08T04:53:46;100810.69;;;19.40;35.67
19150;BME280;9707;49.158;8.632;2023-04-08T04:56:13;100808.00;;;19.40;35.62
19150;BME280;9707;49.158;8.632;2023-04-08T04:58:38;100816.09;;;19.40;35.61
19150;BME280;9707;49.158;8.632;2023-04-08T05:01:03;100820.63;;;19.39;35.64
19150;BME280;9707;49.158;8.632;2023-04-08T05:03:30;100820.63;;;19.39;35.74
19150;BME280;9707;49.158;8.632;2023-04-08T05:05:55;100815.31;;;19.38;35.54
19150;BME280;9707;49.158;8.632;2023-04-08T05:08:20;100813.59;;;19.37;35.71
19150;BME280;9707;49.158;8.632;2023-04-08T05:10:46;100816.28;;;19.37;35.32
19150;BME280;9707;49.158;8.632;2023-04-08T05:13:14;100817.25;;;19.36;35.31
19150;BME280;9707;49.158;8.632;2023-04-08T05:15:39;100825.38;;;19.36;35.39
19150;BME280;9707;49.158;8.632;2023-04-08T05:18:04;100825.38;;;19.36;35.36
19150;BME280;9707;49.158;8.632;2023-04-08T05:20:30;100826.22;;;19.36;35.37
19150;BME280;9707;49.158;8.632;2023-04-08T05:22:58;100829.06;;;19.35;35.44
19150;BME280;9707;49.158;8.632;2023-04-08T05:25:23;100832.59;;;19.35;35.64
19150;BME280;9707;49.158;8.632;2023-04-08T05:27:48;100829.06;;;19.35;35.47
19150;BME280;9707;49.158;8.632;2023-04-08T05:30:13;100831.75;;;19.35;35.39
19150;BME280;9707;49.158;8.632;2023-04-08T05:32:39;100827.28;;;19.34;35.78
19150;BME280;9707;49.158;8.632;2023-04-08T05:35:04;100838.09;;;19.34;35.62
19150;BME280;9707;49.158;8.632;2023-04-08T05:37:30;100835.53;;;19.32;35.59
19150;BME280;9707;49.158;8.632;2023-04-08T05:39:55;100838.09;;;19.34;35.39
19150;BME280;9707;49.158;8.632;2023-04-08T05:42:20;100842.66;;;19.33;35.53
19150;BME280;9707;49.158;8.632;2023-04-08T05:44:46;100846.34;;;19.32;35.67
19150;BME280;9707;49.158;8.632;2023-04-08T05:47:11;100845.44;;;19.32;35.62
19150;BME280;9707;49.158;8.632;2023-04-08T05:49:37;100845.44;;;19.32;35.55
19150;BME280;9707;49.158;8.632;2023-04-08T05:52:02;100847.28;;;19.31;35.64
19150;BME280;9707;49.158;8.632;2023-04-08T05:54:28;100857.13;;;19.32;35.71
19150;BME280;9707;49.158;8.632;2023-04-08T05:56:53;100850.84;;;19.32;35.51
19150;BME280;9707;49.158;8.632;2023-04-08T05:59:18;100859.94;;;19.31;35.62
19150;BME280;9707;49.158;8.632;2023-04-08T06:01:43;100858.09;;;19.31;35.68
19150;BME280;9707;49.158;8.632;2023-04-08T06:04:09;100859.94;;;19.31;35.83
19150;BME280;9707;49.158;8.632;2023-04-08T06:06:37;100866.09;;;19.33;35.95
19150;BME280;9707;49.158;8.632;2023-04-08T06:09:02;100860.78;;;19.31;35.68
19150;BME280;9707;49.158;8.632;2023-04-08T06:11:28;100873.34;;;19.32;35.71
19150;BME280;9707;49.158;8.632;2023-04-08T06:13:53;100871.50;;;19.33;35.76
19150;BME280;9707;49.158;8.632;2023-04-08T06:16:18;100872.47;;;19.32;35.84
19150;BME280;9707;49.158;8.632;2023-04-08T06:18:44;100867.06;;;19.32;35.87
19150;BME280;9707;49.158;8.632;2023-04-08T06:21:09;100871.50;;;19.33;35.91
19150;BME280;9707;49.158;8.632;2023-04-08T06:23:35;100870.50;;;19.34;35.89
19150;BME280;9707;49.158;8.632;2023-04-08T06:26:01;100875.06;;;19.33;35.91
19150;BME280;9707;49.158;8.632;2023-04-08T06:28:28;100878.75;;;19.32;36.00
19150;BME280;9707;49.158;8.632;2023-04-08T06:30:53;100883.19;;;19.33;36.09
19150;BME280;9707;49.158;8.632;2023-04-08T06:33:19;100886.72;;;19.34;36.00
19150;BME280;9707;49.158;8.632;2023-04-08T06:35:44;100886.72;;;19.34;35.98
19150;BME280;9707;49.158;8.632;2023-04-08T06:38:09;100892.13;;;19.34;35.92
19150;BME280;9707;49.158;8.632;2023-04-08T06:40:37;100885.78;;;19.35;36.21
19150;BME280;9707;49.158;8.632;2023-04-08T06:43:03;100887.59;;;19.34;36.32
19150;BME280;9707;49.158;8.632;2023-04-08T06:45:28;100890.22;;;19.36;36.26
19150;BME280;9707;49.158;8.632;2023-04-08T06:47:53;100887.50;;;19.36;36.18
19150;BME280;9707;49.158;8.632;2023-04-08T06:50:20;100884.81;;;19.36;36.65
19150;BME280;9707;49.158;8.632;2023-04-08T06:52:45;100890.22;;;19.36;36.23
19150;BME280;9707;49.158;8.632;2023-04-08T06:55:11;100896.47;;;19.36;36.14
19150;BME280;9707;49.158;8.632;2023-04-08T06:57:36;100886.53;;;19.37;36.18
19150;BME280;9707;49.158;8.632;2023-04-08T07:00:01;100898.22;;;19.37;36.27
19150;BME280;9707;49.158;8.632;2023-04-08T07:02:27;100892.81;;;19.37;36.28
19150;BME280;9707;49.158;8.632;2023-04-08T07:04:52;100893.66;;;19.38;36.11
19150;BME280;9707;49.158;8.632;2023-04-08T07:07:17;100898.22;;;19.37;36.08
19150;BME280;9707;49.158;8.632;2023-04-08T07:09:43;100898.22;;;19.37;36.28
19150;BME280;9707;49.158;8.632;2023-04-08T07:12:10;100893.66;;;19.38;36.26
19150;BME280;9707;49.158;8.632;2023-04-08T07:14:36;100895.38;;;19.39;36.30
19150;BME280;9707;49.158;8.632;2023-04-08T07:17:01;100890.97;;;19.38;36.09
19150;BME280;9707;49.158;8.632;2023-04-08T07:19:26;100898.09;;;19.39;36.14
19150;BME280;9707;49.158;8.632;2023-04-08T07:21:52;100900.78;;;19.39;36.15
19150;BME280;9707;49.158;8.632;2023-04-08T07:24:17;100916.16;;;19.38;36.41
19150;BME280;9707;49.158;8.632;2023-04-08T07:26:43;100911.59;;;19.39;36.34
19150;BME280;9707;49.158;8.632;2023-04-08T07:29:08;100914.31;;;19.39;36.30
19150;BME280;9707;49.158;8.632;2023-04-08T07:31:33;100913.34;;;19.40;36.30
19150;BME280;9707;49.158;8.632;2023-04-08T07:33:59;100920.69;;;19.38;36.35
19150;BME280;9707;49.158;8.632;2023-04-08T07:36:24;100917.00;;;19.39;36.31
19150;BME280;9707;49.158;8.632;2023-04-08T07:38:50;100917.00;;;19.39;36.29
19150;BME280;9707;49.158;8.632;2023-04-08T07:41:16;100917.00;;;19.39;36.28
19150;BME280;9707;49.158;8.632;2023-04-08T07:43:41;100922.41;;;19.39;36.73
19150;BME280;9707;49.158;8.632;2023-04-08T07:46:06;100928.88;;;19.36;36.43
19150;BME280;9707;49.158;8.632;2023-04-08T07:48:35;100926.31;;;19.35;36.57
19150;BME280;9707;49.158;8.632;2023-04-08T07:51:04;100926.19;;;19.36;36.67
19150;BME280;9707;49.158;8.632;2023-04-08T07:53:30;100919.94;;;19.36;36.56
19150;BME280;9707;49.158;8.632;2023-04-08T07:55:56;100925.31;;;19.36;36.49
19150;BME280;9707;49.158;8.632;2023-04-08T07:58:21;100922.63;;;19.36;36.50
19150;BME280;9707;49.158;8.632;2023-04-08T08:00:46;100925.22;;;19.37;36.53
19150;BME280;9707;49.158;8.632;2023-04-08T08:03:12;100933.44;;;19.36;36.52
19150;BME280;9707;49.158;8.632;2023-04-08T08:05:37;100930.81;;;19.34;36.58
19150;BME280;9707;49.158;8.632;2023-04-08T08:08:02;100924.53;;;19.34;36.62
19150;BME280;9707;49.158;8.632;2023-04-08T08:10:28;100933.44;;;19.36;36.37
19150;BME280;9707;49.158;8.632;2023-04-08T08:12:53;100930.63;;;19.37;36.26
19150;BME280;9707;49.158;8.632;2023-04-08T08:15:19;100936.88;;;19.38;36.22
19150;BME280;9707;49.158;8.632;2023-04-08T08:17:44;100933.22;;;19.39;36.17
19150;BME280;9707;49.158;8.632;2023-04-08T08:20:10;100936.88;;;19.38;36.03
19150;BME280;9707;49.158;8.632;2023-04-08T08:22:35;100935.91;;;19.39;36.17
19150;BME280;9707;49.158;8.632;2023-04-08T08:25:04;100945.78;;;19.40;36.11
19150;BME280;9707;49.158;8.632;2023-04-08T08:27:29;100941.22;;;19.40;36.14
19150;BME280;9707;49.158;8.632;2023-04-08T08:29:54;100941.13;;;19.42;36.21
19150;BME280;9707;49.158;8.632;2023-04-08T08:32:21;100946.44;;;19.43;35.91
19150;BME280;9707;49.158;8.632;2023-04-08T08:34:46;100945.56;;;19.43;36.02
19150;BME280;9707;49.158;8.632;2023-04-08T08:37:11;100939.19;;;19.44;36.01
19150;BME280;9707;49.158;8.632;2023-04-08T08:39:36;100945.38;;;19.46;35.92
19150;BME280;9707;49.158;8.632;2023-04-08T08:42:02;100942.44;;;19.49;35.72
19150;BME280;9707;49.158;8.632;2023-04-08T08:44:28;100948.81;;;19.48;35.97
19150;BME280;9707;49.158;8.632;2023-04-08T08:46:54;100950.53;;;19.49;35.98
19150;BME280;9707;49.158;8.632;2023-04-08T08:49:19;100951.44;;;19.49;35.71
19150;BME280;9707;49.158;8.632;2023-04-08T08:51:45;100965.03;;;19.48;35.23
19150;BME280;9707;49.158;8.632;2023-04-08T08:54:11;100966.97;;;19.46;35.02
19150;BME280;9707;49.158;8.632;2023-04-08T08:56:37;100968.91;;;19.44;35.07
19150;BME280;9707;49.158;8.632;2023-04-08T08:59:02;100960.78;;;19.44;34.53
19150;BME280;9707;49.158;8.632;2023-04-08T09:01:32;100960.69;;;19.45;33.79
19150;BME280;9707;49.158;8.632;2023-04-08T09:04:09;100967.81;;;19.46;32.75
19150;BME280;9707;49.158;8.632;2023-04-08T09:06:36;100977.97;;;19.43;32.79
19150;BME280;9707;49.158;8.632;2023-04-08T09:09:01;100981.66;;;19.42;32.42
19150;BME280;9707;49.158;8.632;2023-04-08T09:11:29;100974.53;;;19.41;32.73
19150;BME280;9707;49.158;8.632;2023-04-08T09:13:56;100972.56;;;19.43;33.72
19150;BME280;9707;49.158;8.632;2023-04-08T09:16:21;100974.00;;;19.48;33.55
19150;BME280;9707;49.158;8.632;2023-04-08T09:18:48;100968.53;;;19.50;33.00
19150;BME280;9707;49.158;8.632;2023-04-08T09:21:15;100970.25;;;19.51;33.58
19150;BME280;9707;49.158;8.632;2023-04-08T09:23:48;100970.03;;;19.54;33.28
19150;BME280;9707;49.158;8.632;2023-04-08T09:26:19;100970.03;;;19.54;32.93
19150;BME280;9707;49.158;8.632;2023-04-08T09:29:04;100967.22;;;19.55;32.72
19150;BME280;9707;49.158;8.632;2023-04-08T09:31:31;100963.53;;;19.56;32.86
19150;BME280;9707;49.158;8.632;2023-04-08T09:33:59;100957.94;;;19.59;33.08
19150;BME280;9707;49.158;8.632;2023-04-08T09:36:26;100964.00;;;19.63;32.40
19150;BME280;9707;49.158;8.632;2023-04-08T09:38:52;100966.72;;;19.63;31.67
19150;BME280;9707;49.158;8.632;2023-04-08T09:41:19;100963.16;;;19.62;31.99
19150;BME280;9707;49.158;8.632;2023-04-08T09:43:58;100956.69;;;19.65;31.42
19150;BME280;9707;49.158;8.632;2023-04-08T09:46:26;100960.25;;;19.65;31.84
19150;BME280;9707;49.158;8.632;2023-04-08T09:49:07;100961.88;;;19.68;31.33
19150;BME280;9707;49.158;8.632;2023-04-08T09:51:46;100958.19;;;19.69;30.86
19150;BME280;9707;49.158;8.632;2023-04-08T09:54:15;100965.56;;;19.67;30.63
19150;BME280;9707;49.158;8.632;2023-04-08T09:57:00;100959.94;;;19.70;30.49
19150;BME280;9707;49.158;8.632;2023-04-08T09:59:29;100963.41;;;19.72;31.13
19150;BME280;9707;49.158;8.632;2023-04-08T10:02:00;100958.75;;;19.74;30.03
19150;BME280;9707;49.158;8.632;2023-04-08T10:04:28;100956.03;;;19.74;30.68
19150;BME280;9707;49.158;8.632;2023-04-08T10:07:03;100959.31;;;19.79;30.99
19150;BME280;9707;49.158;8.632;2023-04-08T10:09:29;100965.38;;;19.82;30.40
19150;BME280;9707;49.158;8.632;2023-04-08T10:11:55;100965.28;;;19.84;30.11
19150;BME280;9707;49.158;8.632;2023-04-08T10:14:20;100961.59;;;19.85;29.34
19150;BME280;9707;49.158;8.632;2023-04-08T10:16:46;100968.63;;;19.87;30.03
19150;BME280;9707;49.158;8.632;2023-04-08T10:19:37;100962.13;;;19.90;30.22
19150;BME280;9707;49.158;8.632;2023-04-08T10:27:43;100972.75;;;19.93;30.60
19150;BME280;9707;49.158;8.632;2023-04-08T10:32:54;100967.16;;;19.96;30.20
19150;BME280;9707;49.158;8.632;2023-04-08T10:35:47;100963.56;;;19.95;29.98
19150;BME280;9707;49.158;8.632;2023-04-08T10:38:14;100964.47;;;19.96;29.84
19150;BME280;9707;49.158;8.632;2023-04-08T10:40:41;100967.16;;;19.96;29.78
19150;BME280;9707;49.158;8.632;2023-04-08T10:43:11;100968.00;;;19.96;29.50
19150;BME280;9707;49.158;8.632;2023-04-08T10:45:37;100967.91;;;19.98;29.86
19150;BME280;9707;49.158;8.632;2023-04-08T10:48:12;100970.50;;;19.99;29.89
19150;BME280;9707;49.158;8.632;2023-04-08T10:50:38;100973.13;;;20.01;29.34
19150;BME280;9707;49.158;8.632;2023-04-08T10:53:05;100968.66;;;20.00;29.67
19150;BME280;9707;49.158;8.632;2023-04-08T10:55:30;100966.72;;;20.02;30.30
19150;BME280;9707;49.158;8.632;2023-04-08T10:58:04;100970.19;;;20.04;29.62
19150;BME280;9707;49.158;8.632;2023-04-08T11:00:35;100973.88;;;20.03;29.52
19150;BME280;9707;49.158;8.632;2023-04-08T11:03:05;100967.72;;;20.01;29.45
19150;BME280;9707;49.158;8.632;2023-04-08T11:05:31;100966.72;;;20.02;29.41
19150;BME280;9707;49.158;8.632;2023-04-08T11:08:00;100961.31;;;20.02;29.05
19150;BME280;9707;49.158;8.632;2023-04-08T11:10:26;100964.03;;;20.02;29.09
19150;BME280;9707;49.158;8.632;2023-04-08T11:12:53;100961.31;;;20.02;28.86
19150;BME280;9707;49.158;8.632;2023-04-08T11:15:19;100962.16;;;20.02;29.04
19150;BME280;9707;49.158;8.632;2023-04-08T11:17:46;100969.34;;;20.03;29.48
19150;BME280;9707;49.158;8.632;2023-04-08T11:20:12;100962.84;;;20.06;29.90
19150;BME280;9707;49.158;8.632;2023-04-08T11:22:38;100963.53;;;20.09;29.73
19150;BME280;9707;49.158;8.632;2023-04-08T11:25:04;100973.06;;;20.15;29.70
19150;BME280;9707;49.158;8.632;2023-04-08T11:27:33;100962.22;;;20.15;28.30
19150;BME280;9707;49.158;8.632;2023-04-08T11:30:00;100969.41;;;20.16;28.83
19150;BME280;9707;49.158;8.632;2023-04-08T11:32:26;100968.41;;;20.17;28.79
19150;BME280;9707;49.158;8.632;2023-04-08T11:34:52;100974.81;;;20.16;28.01
19150;BME280;9707;49.158;8.632;2023-04-08T11:37:18;100967.63;;;20.15;28.41
19150;BME280;9707;49.158;8.632;2023-04-08T11:39:44;100963.00;;;20.17;28.29
19150;BME280;9707;49.158;8.632;2023-04-08T11:44:51;100962.91;;;20.18;28.94
19150;BME280;9707;49.158;8.632;2023-04-08T11:47:16;100965.38;;;20.21;28.94
19150;BME280;9707;49.158;8.632;2023-04-08T11:49:43;100962.47;;;20.24;28.77
19150;BME280;9707;49.158;8.632;2023-04-08T11:52:09;100956.97;;;20.26;28.34
19150;BME280;9707;49.158;8.632;2023-04-08T11:54:40;100947.97;;;20.25;28.98
19150;BME280;9707;49.158;8.632;2023-04-08T11:57:06;100950.34;;;20.30;28.77
19150;BME280;9707;49.158;8.632;2023-04-08T11:59:31;100948.53;;;20.30;27.91
19150;BME280;9707;49.158;8.632;2023-04-08T12:01:56;100949.50;;;20.29;27.95
19150;BME280;9707;49.158;8.632;2023-04-08T12:04:22;100954.03;;;20.29;28.04
19150;BME280;9707;49.158;8.632;2023-04-08T12:06:48;100957.72;;;20.28;27.75
19150;BME280;9707;49.158;8.632;2023-04-08T12:09:13;100956.97;;;20.26;28.08
19150;BME280;9707;49.158;8.632;2023-04-08T12:11:39;100954.03;;;20.29;28.30
19150;BME280;9707;49.158;8.632;2023-04-08T12:14:04;100956.75;;;20.29;27.92
19150;BME280;9707;49.158;8.632;2023-04-08T12:16:29;100961.16;;;20.30;28.12
19150;BME280;9707;49.158;8.632;2023-04-08T12:18:54;100949.59;;;20.28;28.03
19150;BME280;9707;49.158;8.632;2023-04-08T12:21:20;100961.41;;;20.27;28.29
19150;BME280;9707;49.158;8.632;2023-04-08T12:23:45;100961.16;;;20.30;28.79
19150;BME280;9707;49.158;8.632;2023-04-08T12:26:10;100961.84;;;20.33;28.74
19150;BME280;9707;49.158;8.632;2023-04-08T12:28:36;100963.47;;;20.36;28.14
19150;BME280;9707;49.158;8.632;2023-04-08T12:31:02;100966.38;;;20.33;28.05
19150;BME280;9707;49.158;8.632;2023-04-08T12:33:27;100963.56;;;20.34;28.10
19150;BME280;9707;49.158;8.632;2023-04-08T12:35:52;100966.19;;;20.36;28.66
19150;BME280;9707;49.158;8.632;2023-04-08T12:38:18;100973.09;;;20.40;28.92
19150;BME280;9707;49.158;8.632;2023-04-08T12:40:43;100961.84;;;20.46;28.31
19150;BME280;9707;49.158;8.632;2023-04-08T12:43:08;100965.31;;;20.48;28.57
19150;BME280;9707;49.158;8.632;2023-04-08T12:45:34;100967.03;;;20.49;27.98
19150;BME280;9707;49.158;8.632;2023-04-08T12:47:59;100961.63;;;20.49;27.79
19150;BME280;9707;49.158;8.632;2023-04-08T12:50:24;100967.03;;;20.49;27.41
19150;BME280;9707;49.158;8.632;2023-04-08T12:52:50;100966.06;;;20.50;27.49
19150;BME280;9707;49.158;8.632;2023-04-08T12:55:15;100972.25;;;20.52;26.55
19150;BME280;9707;49.158;8.632;2023-04-08T12:57:40;100968.75;;;20.50;26.60
19150;BME280;9707;49.158;8.632;2023-04-08T13:00:06;100963.34;;;20.50;26.76
19150;BME280;9707;49.158;8.632;2023-04-08T13:02:31;100968.66;;;20.51;26.83
19150;BME280;9707;49.158;8.632;2023-04-08T13:04:57;100972.25;;;20.52;27.21
19150;BME280;9707;49.158;8.632;2023-04-08T13:07:22;100959.44;;;20.54;27.05
19150;BME280;9707;49.158;8.632;2023-04-08T13:09:47;100960.97;;;20.58;26.50
19150;BME280;9707;49.158;8.632;2023-04-08T13:12:13;100955.56;;;20.58;26.32
19150;BME280;9707;49.158;8.632;2023-04-08T13:14:38;100963.69;;;20.58;26.16